Time;durP1;ratioP1;P1;durP2;ratioP2;P2;SDS_P1;SDS_P2;PMS_P1;PMS_P2;Temp;Humidity;BMP_temperature;BMP_pressure;BME280_temperature;BME280_humidity;BME280_pressure;Samples;Min_cycle;Max_cycle;Signal;HPM_P1;HPM_P2
2023/01/31 00:01:15;;;;;;;4.80;0.30;;;2.50;99.90;;;;;;5033703;28;20026;-85
2023/01/31 00:03:42;;;;;;;3.33;0.30;;;2.40;99.90;;;;;;5038830;28;20048;-84
2023/01/31 00:06:22;;;;;;;4.22;0.20;;;2.30;99.90;;;;;;5038384;28;20041;-85
2023/01/31 00:08:49;;;;;;;2.53;0.20;;;2.20;99.90;;;;;;5022866;28;20037;-85
2023/01/31 00:11:17;;;;;;;3.70;0.17;;;2.20;99.90;;;;;;5028913;28;20028;-83
2023/01/31 00:13:43;;;;;;;4.15;0.30;;;2.20;99.90;;;;;;5041093;28;20478;-84
2023/01/31 00:16:11;;;;;;;7.07;0.30;;;2.40;99.90;;;;;;5024344;28;20120;-83
2023/01/31 00:18:37;;;;;;;9.75;0.35;;;2.20;99.90;;;;;;5039740;28;20017;-85
2023/01/31 00:21:10;;;;;;;4.20;0.30;;;2.30;99.90;;;;;;5026904;28;20529;-84
2023/01/31 00:23:37;;;;;;;9.90;0.57;;;2.20;99.90;;;;;;5037484;28;20484;-83
2023/01/31 00:26:13;;;;;;;12.38;1.00;;;2.40;99.90;;;;;;5023637;28;20025;-84
2023/01/31 00:28:39;;;;;;;10.75;1.15;;;2.60;99.90;;;;;;5045212;28;20029;-85
2023/01/31 00:31:05;;;;;;;9.13;0.40;;;2.50;99.90;;;;;;5030299;28;20112;-85
2023/01/31 00:33:33;;;;;;;7.47;0.52;;;2.50;99.90;;;;;;5030383;28;20030;-84
2023/01/31 00:36:02;;;;;;;6.82;0.50;;;2.30;99.90;;;;;;5027381;28;20049;-85
2023/01/31 00:38:28;;;;;;;6.28;0.40;;;2.20;99.90;;;;;;5042801;28;20120;-84
2023/01/31 00:40:54;;;;;;;2.22;0.30;;;2.20;99.90;;;;;;5028163;28;20112;-84
2023/01/31 00:43:20;;;;;;;4.03;0.20;;;2.10;99.90;;;;;;5044063;28;20029;-84
2023/01/31 00:45:45;;;;;;;3.03;0.22;;;2.00;99.90;;;;;;5045306;28;20481;-85
2023/01/31 00:48:11;;;;;;;8.13;0.30;;;1.90;99.90;;;;;;5024832;28;20045;-87
2023/01/31 00:50:37;;;;;;;7.47;0.50;;;1.90;99.90;;;;;;5030461;28;20032;-84
2023/01/31 00:53:03;;;;;;;7.70;0.50;;;2.20;99.90;;;;;;5043997;28;20036;-87
2023/01/31 00:55:29;;;;;;;6.40;0.82;;;2.00;99.90;;;;;;5047799;28;20037;-86
2023/01/31 00:57:55;;;;;;;6.10;0.30;;;2.00;99.90;;;;;;5030271;28;20116;-84
2023/01/31 01:00:20;;;;;;;7.60;0.80;;;2.00;99.90;;;;;;5056406;28;20116;-84
2023/01/31 01:02:46;;;;;;;14.55;0.60;;;2.00;99.90;;;;;;5040294;28;20417;-83
2023/01/31 01:05:12;;;;;;;6.75;0.40;;;2.00;99.90;;;;;;5041975;28;20554;-83
2023/01/31 01:07:38;;;;;;;12.27;0.77;;;2.00;99.90;;;;;;5044152;28;20412;-83
2023/01/31 01:10:05;;;;;;;11.75;0.60;;;2.20;99.90;;;;;;5046420;28;20033;-84
2023/01/31 01:12:31;;;;;;;8.82;0.50;;;2.10;99.90;;;;;;5033895;28;20032;-84
2023/01/31 01:14:56;;;;;;;7.95;0.40;;;2.00;99.90;;;;;;5041401;28;20405;-84
2023/01/31 01:17:22;;;;;;;5.68;0.40;;;1.90;99.90;;;;;;5030200;28;20474;-84
2023/01/31 01:19:48;;;;;;;4.75;0.25;;;1.80;99.90;;;;;;5025610;28;20043;-84
2023/01/31 01:22:15;;;;;;;4.25;0.20;;;1.70;99.90;;;;;;5046135;28;20039;-83
2023/01/31 01:24:44;;;;;;;3.88;0.25;;;1.70;99.90;;;;;;5047773;28;20025;-84
2023/01/31 01:27:10;;;;;;;1.07;0.10;;;1.60;99.90;;;;;;5031576;28;20025;-84
2023/01/31 01:29:37;;;;;;;3.88;0.20;;;1.60;99.90;;;;;;5047659;28;20342;-84
2023/01/31 01:32:03;;;;;;;5.50;0.60;;;1.60;99.90;;;;;;5044808;28;20099;-84
2023/01/31 01:34:29;;;;;;;3.28;0.20;;;1.60;99.90;;;;;;5028863;28;20385;-84
2023/01/31 01:36:54;;;;;;;5.68;0.30;;;1.60;99.90;;;;;;5030556;28;20029;-84
2023/01/31 01:39:20;;;;;;;4.28;0.25;;;1.60;99.90;;;;;;5044027;28;20096;-85
2023/01/31 01:41:46;;;;;;;3.08;0.63;;;1.50;99.90;;;;;;5047360;28;20075;-84
2023/01/31 01:44:47;;;;;;;1.42;0.10;;;1.50;99.90;;;;;;5046931;28;20029;-85
2023/01/31 01:47:15;;;;;;;2.25;0.20;;;1.50;99.90;;;;;;5041863;28;20056;-83
2023/01/31 01:49:41;;;;;;;0.50;0.10;;;1.50;99.90;;;;;;5042850;28;20037;-84
2023/01/31 01:52:10;;;;;;;2.53;0.10;;;1.40;99.90;;;;;;5048787;28;20759;-83
2023/01/31 01:54:47;;;;;;;1.23;0.10;;;1.40;99.90;;;;;;5031436;28;20508;-84
2023/01/31 01:57:17;;;;;;;3.50;0.13;;;1.40;99.90;;;;;;5023126;28;20025;-84
2023/01/31 01:59:51;;;;;;;2.63;0.15;;;1.40;99.90;;;;;;5035019;28;20033;-84
2023/01/31 02:02:17;;;;;;;4.35;0.30;;;1.40;99.90;;;;;;5030590;28;20119;-84
2023/01/31 02:04:48;;;;;;;1.40;0.10;;;1.30;99.90;;;;;;5044003;28;20460;-85
2023/01/31 02:07:14;;;;;;;1.45;0.15;;;1.30;99.90;;;;;;5031083;28;20367;-84
2023/01/31 02:10:05;;;;;;;1.55;0.10;;;1.30;99.90;;;;;;5044729;28;20036;-84
2023/01/31 02:12:34;;;;;;;2.85;0.20;;;1.40;99.90;;;;;;5026332;28;20067;-85
2023/01/31 02:15:01;;;;;;;1.40;0.17;;;1.40;99.90;;;;;;5029778;28;20037;-84
2023/01/31 02:17:26;;;;;;;2.05;0.20;;;1.60;99.90;;;;;;5027619;28;20492;-87
2023/01/31 02:20:11;;;;;;;2.92;0.20;;;1.40;99.90;;;;;;5044141;28;20096;-85
2023/01/31 02:23:24;;;;;;;2.35;0.20;;;1.50;99.90;;;;;;5043511;28;20033;-84
2023/01/31 02:25:53;;;;;;;2.63;0.13;;;1.40;99.90;;;;;;5001086;28;20026;-84
2023/01/31 02:28:21;;;;;;;3.95;0.20;;;1.50;99.90;;;;;;4989266;28;20030;-84
2023/01/31 02:31:08;;;;;;;3.97;0.20;;;1.40;99.90;;;;;;4988194;28;20571;-85
2023/01/31 02:33:56;;;;;;;3.83;0.20;;;1.40;99.90;;;;;;4989217;28;20037;-84
2023/01/31 02:37:00;;;;;;;2.72;0.25;;;1.60;99.90;;;;;;4990967;28;20426;-84
2023/01/31 02:39:45;;;;;;;3.40;0.73;;;1.60;99.90;;;;;;4893747;29;20051;-84
2023/01/31 02:42:26;;;;;;;4.43;0.20;;;1.70;99.90;;;;;;4928926;29;20062;-84
2023/01/31 02:45:00;;;;;;;2.75;0.20;;;1.80;99.90;;;;;;4899279;29;20052;-84
2023/01/31 02:47:43;;;;;;;6.70;0.30;;;1.90;99.90;;;;;;4913531;29;20382;-84
2023/01/31 02:50:13;;;;;;;3.08;0.28;;;2.00;99.90;;;;;;4908069;29;20219;-84
2023/01/31 02:52:59;;;;;;;7.10;0.30;;;2.10;99.90;;;;;;4897222;29;20019;-85
2023/01/31 02:58:29;;;;;;;4.03;0.30;;;2.20;99.90;;;;;;4961345;28;20519;-84
2023/01/31 03:00:59;;;;;;;4.13;0.20;;;2.20;99.90;;;;;;4950402;28;20042;-85
2023/01/31 03:03:30;;;;;;;2.35;0.25;;;2.30;99.90;;;;;;4934965;28;20089;-84
2023/01/31 03:06:10;;;;;;;2.95;0.20;;;2.30;99.90;;;;;;4962751;28;20118;-83
2023/01/31 03:08:38;;;;;;;3.05;0.20;;;2.30;99.90;;;;;;4963536;28;20097;-84
2023/01/31 03:11:07;;;;;;;7.82;0.40;;;2.40;99.90;;;;;;4930483;28;20463;-84
2023/01/31 03:13:57;;;;;;;4.72;0.60;;;2.40;99.90;;;;;;4983053;28;20120;-84
2023/01/31 03:19:45;;;;;;;3.72;0.52;;;2.60;99.90;;;;;;5039623;28;20033;-84
2023/01/31 03:22:16;;;;;;;4.43;0.40;;;2.60;99.90;;;;;;5037589;28;20032;-84
2023/01/31 03:24:46;;;;;;;4.53;0.30;;;2.60;99.90;;;;;;5045316;28;20028;-84
2023/01/31 03:27:13;;;;;;;2.08;0.30;;;2.50;99.90;;;;;;5044045;28;20508;-84
2023/01/31 03:29:40;;;;;;;5.40;0.35;;;2.60;99.90;;;;;;5022711;28;20024;-85
2023/01/31 03:32:26;;;;;;;6.68;0.50;;;2.60;99.90;;;;;;5030597;28;20036;-83
2023/01/31 03:34:53;;;;;;;5.03;0.50;;;2.80;99.90;;;;;;5028492;28;20037;-85
2023/01/31 03:37:41;;;;;;;6.97;0.35;;;2.90;99.90;;;;;;5031362;28;20021;-84
2023/01/31 03:40:33;;;;;;;10.82;0.80;;;2.90;99.90;;;;;;5037471;28;20440;-84
2023/01/31 03:43:03;;;;;;;6.68;0.88;;;3.00;99.90;;;;;;5037605;28;20028;-83
2023/01/31 03:45:53;;;;;;;4.57;0.60;;;3.10;99.90;;;;;;5028043;28;20064;-84
2023/01/31 03:48:21;;;;;;;7.72;0.70;;;3.20;99.90;;;;;;5033769;28;20040;-85
2023/01/31 03:50:56;;;;;;;6.25;0.70;;;3.20;99.90;;;;;;5027019;28;20030;-85
2023/01/31 03:53:42;;;;;;;7.72;0.73;;;3.30;99.90;;;;;;5027759;28;20025;-84
2023/01/31 03:56:17;;;;;;;16.73;2.20;;;3.50;99.90;;;;;;5026596;28;20086;-84
2023/01/31 03:58:52;;;;;;;8.07;0.90;;;3.60;99.90;;;;;;5038646;28;20028;-83
2023/01/31 04:01:21;;;;;;;7.13;0.95;;;3.60;99.90;;;;;;5043664;28;20036;-83
2023/01/31 04:04:00;;;;;;;11.52;1.17;;;3.60;99.90;;;;;;5040555;28;20036;-84
2023/01/31 04:06:26;;;;;;;12.20;2.25;;;3.60;99.90;;;;;;5030224;28;20021;-82
2023/01/31 04:08:53;;;;;;;12.55;3.08;;;3.80;99.90;;;;;;5032261;28;20025;-84
2023/01/31 04:11:20;;;;;;;10.57;2.15;;;3.80;99.90;;;;;;5047648;28;20036;-84
2023/01/31 04:13:46;;;;;;;8.90;1.75;;;3.80;99.90;;;;;;5041917;28;20462;-84
2023/01/31 04:16:13;;;;;;;11.48;1.98;;;3.80;99.90;;;;;;5043508;28;20065;-84
2023/01/31 04:18:38;;;;;;;7.85;1.92;;;3.70;99.90;;;;;;5032706;28;20094;-84
2023/01/31 04:21:04;;;;;;;10.05;1.70;;;3.80;99.90;;;;;;5036439;28;20030;-85
2023/01/31 04:23:30;;;;;;;13.68;2.75;;;3.80;99.90;;;;;;5032431;28;20030;-84
2023/01/31 04:25:56;;;;;;;9.60;1.55;;;3.70;99.90;;;;;;5049245;28;20057;-84
2023/01/31 04:28:21;;;;;;;11.25;2.00;;;3.70;99.90;;;;;;5045959;28;20029;-84
2023/01/31 04:30:55;;;;;;;8.50;2.58;;;3.80;99.90;;;;;;5027777;28;20052;-90
2023/01/31 04:33:22;;;;;;;11.30;2.20;;;3.70;99.90;;;;;;5027105;28;20034;-83
2023/01/31 04:35:49;;;;;;;11.70;2.55;;;3.70;99.90;;;;;;5044072;28;20046;-86
2023/01/31 04:38:15;;;;;;;9.05;1.85;;;3.80;99.90;;;;;;5041828;28;20041;-85
2023/01/31 04:40:41;;;;;;;8.77;1.77;;;3.70;99.90;;;;;;5047395;28;20428;-88
2023/01/31 04:43:06;;;;;;;9.95;1.90;;;3.80;99.90;;;;;;5043142;28;20089;-90
2023/01/31 04:45:32;;;;;;;13.27;2.72;;;3.80;99.90;;;;;;5046806;28;20393;-88
2023/01/31 04:47:58;;;;;;;12.48;3.17;;;3.80;99.90;;;;;;5043809;28;20032;-88
2023/01/31 04:50:24;;;;;;;15.18;3.13;;;3.90;99.90;;;;;;5049413;28;20124;-85
2023/01/31 04:52:50;;;;;;;17.25;3.85;;;3.90;99.90;;;;;;5050468;28;20477;-85
2023/01/31 04:55:16;;;;;;;19.10;4.03;;;3.90;99.90;;;;;;5028032;28;20037;-86
2023/01/31 04:57:41;;;;;;;15.98;3.33;;;3.90;99.90;;;;;;5032593;28;20377;-84
2023/01/31 05:00:08;;;;;;;13.70;3.15;;;3.80;99.90;;;;;;5042724;28;20463;-85
2023/01/31 05:02:35;;;;;;;13.95;3.60;;;3.80;99.90;;;;;;5047978;28;20036;-84
2023/01/31 05:05:01;;;;;;;11.95;3.40;;;3.90;99.90;;;;;;5046907;28;20064;-85
2023/01/31 05:07:27;;;;;;;6.18;1.83;;;3.80;99.90;;;;;;5030303;28;20067;-88
2023/01/31 05:09:53;;;;;;;8.65;2.15;;;3.80;99.90;;;;;;5043558;28;20457;-85
2023/01/31 05:12:18;;;;;;;12.48;2.53;;;3.80;99.90;;;;;;5030389;28;20025;-85
2023/01/31 05:14:44;;;;;;;16.63;3.97;;;3.80;99.90;;;;;;5048199;28;20087;-85
2023/01/31 05:17:10;;;;;;;11.40;3.25;;;3.90;99.90;;;;;;5048951;28;20059;-88
2023/01/31 05:19:35;;;;;;;11.38;2.95;;;3.80;99.90;;;;;;5047100;28;20032;-84
2023/01/31 05:22:01;;;;;;;11.05;3.13;;;3.80;99.90;;;;;;5032229;28;20112;-87
2023/01/31 05:24:30;;;;;;;10.40;2.90;;;3.90;99.90;;;;;;5046734;28;20500;-85
2023/01/31 05:26:57;;;;;;;7.78;3.25;;;3.90;99.90;;;;;;5036595;28;20021;-84
2023/01/31 05:29:28;;;;;;;21.08;4.93;;;3.90;99.90;;;;;;5030076;28;20034;-85
2023/01/31 05:31:56;;;;;;;22.70;5.00;;;3.90;99.90;;;;;;5026872;28;20017;-85
2023/01/31 05:34:24;;;;;;;19.23;5.20;;;4.00;99.90;;;;;;5043341;28;20079;-88
2023/01/31 05:36:50;;;;;;;18.65;5.00;;;4.00;99.90;;;;;;5031981;28;20027;-84
2023/01/31 05:39:16;;;;;;;18.88;4.50;;;4.00;99.90;;;;;;5032911;28;20040;-86
2023/01/31 05:41:42;;;;;;;12.75;4.57;;;4.00;99.90;;;;;;5047012;28;20029;-86
2023/01/31 05:44:08;;;;;;;19.83;5.80;;;4.00;99.90;;;;;;5038534;28;20052;-85
2023/01/31 05:46:33;;;;;;;31.27;7.20;;;4.10;99.90;;;;;;5030059;28;20044;-85
2023/01/31 05:48:59;;;;;;;22.92;6.90;;;4.20;99.90;;;;;;5045133;28;20048;-86
2023/01/31 05:51:25;;;;;;;21.58;6.85;;;4.30;99.90;;;;;;5044605;28;20033;-88
2023/01/31 05:53:50;;;;;;;24.13;5.90;;;4.30;99.90;;;;;;5047664;28;20045;-85
2023/01/31 05:56:16;;;;;;;20.60;7.15;;;4.20;99.90;;;;;;5047943;28;20452;-87
2023/01/31 05:58:42;;;;;;;26.83;8.02;;;4.20;99.90;;;;;;5047641;28;20025;-82
2023/01/31 06:01:08;;;;;;;21.58;6.63;;;4.20;99.90;;;;;;5033800;28;20033;-87
2023/01/31 06:03:34;;;;;;;19.35;6.35;;;4.20;99.90;;;;;;5027316;28;20029;-81
2023/01/31 06:05:59;;;;;;;20.65;6.03;;;4.20;99.90;;;;;;5034246;28;20185;-84
2023/01/31 06:08:25;;;;;;;25.50;7.95;;;4.20;99.90;;;;;;5040317;28;20032;-82
2023/01/31 06:10:51;;;;;;;25.75;7.90;;;4.30;99.90;;;;;;5038158;28;20032;-81
2023/01/31 06:13:16;;;;;;;21.02;7.65;;;4.30;99.90;;;;;;5041240;28;20032;-83
2023/01/31 06:15:43;;;;;;;23.80;7.78;;;4.30;99.90;;;;;;5041508;28;20133;-84
2023/01/31 06:18:09;;;;;;;32.72;7.85;;;4.30;99.90;;;;;;5044562;28;20154;-83
2023/01/31 06:20:34;;;;;;;23.50;6.82;;;4.30;99.90;;;;;;5026935;28;20468;-84
2023/01/31 06:23:00;;;;;;;28.20;9.60;;;4.20;99.90;;;;;;5022198;28;20029;-83
2023/01/31 06:25:26;;;;;;;29.90;8.18;;;4.30;99.90;;;;;;5037899;28;20039;-85
2023/01/31 06:27:54;;;;;;;31.30;7.93;;;4.30;99.90;;;;;;5038377;28;20024;-84
2023/01/31 06:30:19;;;;;;;18.77;7.28;;;4.20;99.90;;;;;;5035647;28;20036;-83
2023/01/31 06:32:45;;;;;;;23.10;6.97;;;4.20;99.90;;;;;;5024384;28;20025;-84
2023/01/31 06:35:11;;;;;;;25.40;9.10;;;4.20;99.90;;;;;;5025370;28;20052;-83
2023/01/31 06:37:37;;;;;;;25.00;8.40;;;4.20;99.90;;;;;;5025059;28;20025;-84
2023/01/31 06:40:03;;;;;;;28.95;8.57;;;4.20;99.90;;;;;;5037572;28;20041;-83
2023/01/31 06:42:29;;;;;;;32.53;8.23;;;4.20;99.90;;;;;;5027340;28;20075;-83
2023/01/31 06:44:54;;;;;;;27.88;8.75;;;4.10;99.90;;;;;;5042732;28;20091;-83
2023/01/31 06:47:20;;;;;;;24.75;8.50;;;4.10;99.90;;;;;;5045615;28;20059;-83
2023/01/31 06:49:46;;;;;;;27.08;8.40;;;4.10;99.90;;;;;;5017690;28;20087;-83
2023/01/31 06:52:11;;;;;;;21.25;7.10;;;4.10;99.90;;;;;;5039369;28;20214;-83
2023/01/31 06:54:37;;;;;;;21.48;7.13;;;4.10;99.90;;;;;;5021255;28;20037;-81
2023/01/31 06:57:02;;;;;;;24.08;8.57;;;4.10;99.90;;;;;;5038687;28;20025;-81
2023/01/31 06:59:28;;;;;;;25.77;7.82;;;4.20;99.90;;;;;;5056985;28;20024;-81
2023/01/31 07:01:54;;;;;;;25.13;9.13;;;4.20;99.90;;;;;;5025126;28;20037;-81
2023/01/31 07:04:19;;;;;;;21.88;7.25;;;4.20;99.90;;;;;;5045070;28;20029;-83
2023/01/31 07:06:45;;;;;;;24.08;8.07;;;4.20;99.90;;;;;;5038440;28;20064;-81
2023/01/31 07:09:11;;;;;;;23.13;7.72;;;4.20;99.90;;;;;;5036089;28;20026;-81
2023/01/31 07:11:37;;;;;;;18.65;5.90;;;4.20;99.90;;;;;;5024243;28;20051;-80
2023/01/31 07:14:03;;;;;;;20.95;6.35;;;4.20;99.90;;;;;;5036287;28;20493;-82
2023/01/31 07:16:30;;;;;;;27.08;8.52;;;4.20;99.90;;;;;;5027984;28;20033;-80
2023/01/31 07:18:55;;;;;;;25.92;8.45;;;4.20;99.90;;;;;;5022015;28;20025;-81
2023/01/31 07:21:22;;;;;;;22.15;8.18;;;4.30;99.90;;;;;;5035101;28;20029;-82
2023/01/31 07:23:49;;;;;;;14.75;6.47;;;4.20;99.90;;;;;;5036828;28;20052;-82
2023/01/31 07:26:15;;;;;;;24.48;7.80;;;4.20;99.90;;;;;;5034697;28;20031;-81
2023/01/31 07:28:41;;;;;;;19.90;6.13;;;4.20;99.90;;;;;;5039749;28;20029;-82
2023/01/31 07:31:10;;;;;;;21.73;7.65;;;4.20;99.90;;;;;;5042160;28;20029;-83
2023/01/31 07:33:37;;;;;;;23.00;7.18;;;4.30;99.90;;;;;;5041988;28;20390;-83
2023/01/31 07:36:04;;;;;;;16.90;6.07;;;4.30;99.90;;;;;;5025428;28;20049;-84
2023/01/31 07:38:30;;;;;;;15.00;5.40;;;4.30;99.90;;;;;;5037665;28;20098;-82
2023/01/31 07:41:02;;;;;;;15.32;5.97;;;4.30;99.90;;;;;;5044503;28;20037;-84
2023/01/31 07:43:28;;;;;;;17.38;5.40;;;4.40;99.90;;;;;;5022295;28;20029;-85
2023/01/31 07:45:53;;;;;;;19.55;7.00;;;4.40;99.90;;;;;;5026392;28;20160;-83
2023/01/31 07:48:25;;;;;;;17.20;5.85;;;4.40;99.90;;;;;;5035265;28;20037;-84
2023/01/31 07:50:59;;;;;;;17.17;5.57;;;4.50;99.90;;;;;;5032214;28;20521;-84
2023/01/31 07:53:30;;;;;;;10.52;4.47;;;4.40;99.90;;;;;;5026160;28;20029;-84
2023/01/31 07:56:46;;;;;;;;;;;;;;;;;;;;;
2023/01/31 08:03:31;;;;;;;16.50;5.25;;;4.50;99.90;;;;;;5030827;28;20044;-83
2023/01/31 08:16:25;;;;;;;;;;;;;;;;;;;;;
2023/01/31 08:31:50;;;;;;;12.07;3.63;;;4.80;99.90;;;;;;4842117;29;20048;-88
2023/01/31 08:39:47;;;;;;;;;;;;;;;;;;;;;
2023/01/31 08:43:36;;;;;;;21.50;4.35;;;5.00;99.90;;;;;;4766037;29;20044;-81
2023/01/31 08:50:18;;;;;;;;;;;;;;;;;;;;;
2023/01/31 08:53:06;;;;;;;18.77;3.30;;;5.30;99.90;;;;;;4728705;30;20512;-80
2023/01/31 08:56:10;;;;;;;16.02;3.53;;;5.30;99.90;;;;;;4726107;30;20068;-79
2023/01/31 08:59:33;;;;;;;;;;;;;;;;;;;;;
2023/01/31 09:02:24;;;;;;;19.23;4.30;;;5.40;99.90;;;;;;4723786;30;20047;-79
2023/01/31 09:18:21;;;;;;;10.43;3.03;;;5.60;99.90;;;;;;4844452;29;20085;-79
2023/01/31 09:21:29;;;;;;;24.48;4.35;;;5.60;99.90;;;;;;4866028;28;20036;-79
2023/01/31 09:24:24;;;;;;;12.35;2.60;;;5.70;99.90;;;;;;5043865;28;20040;-80
2023/01/31 09:27:06;;;;;;;11.07;2.45;;;5.70;99.90;;;;;;5027191;28;20144;-81
2023/01/31 09:29:37;;;;;;;12.57;2.47;;;5.70;99.90;;;;;;5043330;28;20033;-86
2023/01/31 09:32:16;;;;;;;9.15;2.25;;;5.70;99.90;;;;;;5033122;28;20426;-81
2023/01/31 09:34:47;;;;;;;20.05;3.83;;;5.70;99.90;;;;;;5025614;28;20041;-82
2023/01/31 09:37:40;;;;;;;11.32;2.20;;;5.80;99.90;;;;;;5025077;28;20040;-83
2023/01/31 09:40:43;;;;;;;15.60;3.13;;;5.80;99.90;;;;;;5043073;28;20048;-80
2023/01/31 09:43:35;;;;;;;17.73;3.20;;;5.80;99.90;;;;;;5025997;28;20040;-80
2023/01/31 09:46:22;;;;;;;16.13;3.88;;;5.90;99.90;;;;;;5042394;28;20145;-78
2023/01/31 09:49:04;;;;;;;13.05;2.97;;;5.80;99.90;;;;;;5025470;28;20029;-80
2023/01/31 09:51:32;;;;;;;10.95;2.13;;;5.90;99.90;;;;;;5026583;28;20025;-78
2023/01/31 09:57:18;;;;;;;17.70;2.17;;;5.90;99.90;;;;;;5035876;28;20057;-79
2023/01/31 10:00:05;;;;;;;15.90;2.65;;;5.90;99.90;;;;;;5044197;28;20033;-80
2023/01/31 10:02:59;;;;;;;13.20;3.15;;;5.90;99.90;;;;;;5027761;28;20670;-79
2023/01/31 10:05:44;;;;;;;11.85;2.47;;;5.90;99.90;;;;;;5034078;28;20131;-79
2023/01/31 10:08:18;;;;;;;16.58;3.30;;;5.90;99.90;;;;;;5024585;28;20064;-79
2023/01/31 10:10:58;;;;;;;16.67;3.72;;;5.90;99.90;;;;;;5025852;28;20039;-79
2023/01/31 10:13:48;;;;;;;14.45;2.88;;;5.90;99.90;;;;;;5025788;28;20025;-79
2023/01/31 10:16:55;;;;;;;;;;;5.90;99.90;;;;;;5027511;28;20103;-79
2023/01/31 10:19:27;;;;;;;13.82;2.70;;;5.80;99.90;;;;;;4985473;28;19917;-80
2023/01/31 10:22:10;;;;;;;16.05;3.28;;;5.80;99.90;;;;;;4986047;28;20120;-79
2023/01/31 10:25:15;;;;;;;12.70;3.53;;;5.80;99.90;;;;;;4987363;28;20037;-79
2023/01/31 10:27:54;;;;;;;14.82;3.42;;;5.90;99.90;;;;;;4983168;28;20025;-79
2023/01/31 10:30:24;;;;;;;16.95;3.55;;;6.00;99.90;;;;;;4969599;28;20045;-78
2023/01/31 10:33:14;;;;;;;12.82;3.03;;;6.00;99.90;;;;;;5001836;28;20192;-81
2023/01/31 10:35:43;;;;;;;15.52;3.50;;;5.90;99.90;;;;;;5001611;28;20045;-81
2023/01/31 10:38:20;;;;;;;14.10;3.45;;;6.00;99.90;;;;;;4998775;28;20795;-80
2023/01/31 10:41:23;;;;;;;18.63;4.53;;;6.00;99.90;;;;;;4992732;28;20065;-82
2023/01/31 10:44:19;;;;;;;17.67;4.07;;;6.00;99.90;;;;;;4967574;28;20037;-79
2023/01/31 10:46:52;;;;;;;12.52;3.65;;;6.00;99.90;;;;;;4982815;28;20046;-80
2023/01/31 10:49:52;;;;;;;16.70;4.97;;;6.00;99.90;;;;;;4994409;28;20045;-77
2023/01/31 10:52:39;;;;;;;15.20;4.50;;;6.00;99.90;;;;;;5042218;28;20541;-81
2023/01/31 10:55:58;;;;;;;16.30;3.97;;;6.00;99.90;;;;;;5044855;28;20050;-83
2023/01/31 10:58:24;;;;;;;19.25;4.85;;;6.00;99.90;;;;;;4963268;28;20038;-82
2023/01/31 11:01:00;;;;;;;14.25;3.72;;;6.10;99.90;;;;;;4949216;28;20038;-81
2023/01/31 11:04:01;;;;;;;13.57;3.55;;;6.10;99.90;;;;;;4965447;28;20709;-81
2023/01/31 11:06:31;;;;;;;12.90;4.10;;;6.10;99.90;;;;;;4974109;28;20565;-81
2023/01/31 11:09:15;;;;;;;;;;;;;;;;;;;;;
2023/01/31 11:12:07;;;;;;;12.05;3.80;;;6.20;99.90;;;;;;4981486;28;20040;-80
2023/01/31 11:14:33;;;;;;;17.17;4.50;;;6.20;99.90;;;;;;4954258;28;20606;-81
2023/01/31 11:17:22;;;;;;;16.30;4.43;;;6.10;99.90;;;;;;4947871;28;20076;-81
2023/01/31 11:20:15;;;;;;;19.77;5.95;;;6.20;99.90;;;;;;4955828;28;20116;-81
2023/01/31 11:22:50;;;;;;;11.60;3.80;;;6.20;99.90;;;;;;4982807;28;20490;-83
2023/01/31 11:25:45;;;;;;;17.02;4.38;;;6.20;99.90;;;;;;4955237;28;20098;-83
2023/01/31 11:28:33;;;;;;;14.45;4.88;;;6.20;99.90;;;;;;4963928;28;20042;-81
2023/01/31 11:31:12;;;;;;;16.63;5.72;;;6.20;99.90;;;;;;4964676;28;20034;-78
2023/01/31 11:34:36;;;;;;;18.55;6.07;;;6.30;99.90;;;;;;4966284;28;20053;-79
2023/01/31 11:37:18;;;;;;;24.67;5.05;;;6.20;99.90;;;;;;5037976;28;20041;-81
2023/01/31 11:40:24;;;;;;;17.88;5.78;;;6.20;99.90;;;;;;5024470;28;20043;-87
2023/01/31 11:42:52;;;;;;;14.63;5.85;;;6.20;99.90;;;;;;5022121;28;20040;-81
2023/01/31 11:45:26;;;;;;;19.80;5.15;;;6.20;99.90;;;;;;5043351;28;20131;-80
2023/01/31 11:48:19;;;;;;;14.77;6.40;;;6.20;99.90;;;;;;5039729;28;20048;-82
2023/01/31 11:51:10;;;;;;;;;;;;;;;;;;;;;
2023/01/31 11:53:56;;;;;;;17.27;6.47;;;6.30;99.90;;;;;;5014790;28;20045;-81
2023/01/31 11:56:45;;;;;;;;;;;;;;;;;;;;;
2023/01/31 11:59:33;;;;;;;16.58;6.60;;;6.40;99.90;;;;;;5017452;28;20044;-88
2023/01/31 12:02:31;;;;;;;17.70;5.63;;;6.40;99.90;;;;;;5007434;28;20030;-82
2023/01/31 12:05:42;;;;;;;14.38;6.20;;;6.40;99.90;;;;;;5008652;28;20025;-81
2023/01/31 12:08:30;;;;;;;16.40;6.50;;;6.40;99.90;;;;;;4976406;28;20512;-88
2023/01/31 12:10:56;;;;;;;18.33;6.47;;;6.50;99.90;;;;;;5009473;28;20033;-83
2023/01/31 12:13:27;;;;;;;18.67;6.10;;;6.50;99.90;;;;;;5006517;28;20037;-80
2023/01/31 12:16:10;;;;;;;15.75;6.00;;;6.50;99.90;;;;;;5007230;28;20049;-85
2023/01/31 12:19:03;;;;;;;18.95;5.60;;;6.50;99.90;;;;;;5005874;28;20053;-85
2023/01/31 12:21:43;;;;;;;15.07;5.32;;;6.50;99.90;;;;;;5007714;28;20029;-79
2023/01/31 12:24:39;;;;;;;16.63;5.55;;;6.60;99.90;;;;;;5024015;28;20476;-81
2023/01/31 12:27:27;;;;;;;21.00;5.90;;;6.50;99.90;;;;;;5007539;28;20448;-79
2023/01/31 12:30:34;;;;;;;12.27;5.03;;;6.50;99.90;;;;;;5016071;28;20025;-80
2023/01/31 12:33:21;;;;;;;15.15;6.10;;;6.60;99.90;;;;;;5008223;28;20032;-80
2023/01/31 12:36:01;;;;;;;12.70;5.57;;;6.50;99.90;;;;;;5008714;28;20045;-79
2023/01/31 12:39:09;;;;;;;19.83;6.27;;;6.60;99.90;;;;;;5020791;28;20035;-77
2023/01/31 12:41:43;;;;;;;16.50;5.72;;;6.50;99.90;;;;;;5026803;28;20676;-79
2023/01/31 12:44:36;;;;;;;14.93;5.85;;;6.60;99.90;;;;;;5024345;28;20030;-77
2023/01/31 12:47:14;;;;;;;15.25;5.90;;;6.60;99.90;;;;;;5040726;28;20040;-77
2023/01/31 12:50:03;;;;;;;15.25;5.68;;;6.60;99.90;;;;;;5005736;28;20139;-77
2023/01/31 12:53:01;;;;;;;11.88;5.32;;;6.60;99.90;;;;;;5008295;28;20060;-78
2023/01/31 12:55:35;;;;;;;14.25;6.38;;;6.70;99.90;;;;;;5013911;28;20159;-80
2023/01/31 12:58:38;;;;;;;19.70;5.57;;;6.70;99.90;;;;;;4977162;28;20107;-76
2023/01/31 13:01:09;;;;;;;18.42;6.30;;;6.70;99.90;;;;;;4994528;28;20048;-77
2023/01/31 13:03:54;;;;;;;14.93;5.05;;;6.70;99.90;;;;;;5025914;28;20037;-78
2023/01/31 13:06:51;;;;;;;15.95;4.93;;;6.70;99.90;;;;;;5010472;28;20031;-77
2023/01/31 13:09:22;;;;;;;9.85;4.20;;;6.70;99.90;;;;;;5025948;28;20040;-85
2023/01/31 13:11:52;;;;;;;9.95;4.88;;;6.70;99.90;;;;;;5025445;28;20033;-76
2023/01/31 13:14:26;;;;;;;10.15;5.10;;;6.70;99.90;;;;;;5031858;28;20037;-78
2023/01/31 13:16:57;;;;;;;12.38;4.30;;;6.70;99.90;;;;;;5031363;28;20045;-78
2023/01/31 13:19:38;;;;;;;9.43;4.55;;;6.70;99.90;;;;;;5007547;28;20040;-78
2023/01/31 13:22:22;;;;;;;12.27;4.95;;;6.70;99.90;;;;;;5024225;28;20079;-76
2023/01/31 13:24:56;;;;;;;13.63;4.88;;;6.80;99.90;;;;;;5006269;28;20373;-78
2023/01/31 13:27:40;;;;;;;10.45;4.47;;;6.80;99.90;;;;;;5007711;28;20083;-81
2023/01/31 13:30:20;;;;;;;8.02;4.53;;;6.80;99.90;;;;;;5009734;28;20029;-80
2023/01/31 13:32:50;;;;;;;11.82;4.35;;;6.80;99.90;;;;;;5010375;28;20037;-78
2023/01/31 13:35:34;;;;;;;13.68;4.60;;;6.80;99.90;;;;;;5026388;28;20834;-78
2023/01/31 13:38:06;;;;;;;16.50;4.63;;;6.90;99.90;;;;;;5023997;28;20024;-83
2023/01/31 13:40:41;;;;;;;14.82;4.82;;;6.90;99.90;;;;;;5009591;28;20029;-79
2023/01/31 13:43:15;;;;;;;10.45;4.22;;;6.90;99.90;;;;;;5025646;28;20158;-78
2023/01/31 13:45:58;;;;;;;12.65;4.65;;;7.00;99.90;;;;;;5031196;28;20025;-78
2023/01/31 13:48:35;;;;;;;14.48;3.97;;;7.00;99.90;;;;;;5008299;28;20059;-77
2023/01/31 13:51:22;;;;;;;15.55;3.05;;;7.10;99.90;;;;;;5026310;28;20025;-79
2023/01/31 13:53:52;;;;;;;11.27;3.35;;;7.10;99.90;;;;;;5030882;28;20541;-78
2023/01/31 13:56:25;;;;;;;13.68;3.58;;;7.10;99.90;;;;;;5025196;28;20174;-77
2023/01/31 13:58:53;;;;;;;11.63;3.17;;;7.20;99.90;;;;;;4992390;28;20100;-78
2023/01/31 14:01:26;;;;;;;12.45;3.33;;;7.20;99.90;;;;;;4989487;28;20462;-78
2023/01/31 14:04:13;;;;;;;13.38;3.85;;;7.30;99.90;;;;;;5003209;28;20029;-77
2023/01/31 14:06:54;;;;;;;13.88;3.33;;;7.20;99.90;;;;;;5003179;28;20143;-79
2023/01/31 14:09:30;;;;;;;13.82;4.40;;;7.30;99.90;;;;;;4990994;28;20049;-79
2023/01/31 14:12:09;;;;;;;16.20;3.88;;;7.30;99.90;;;;;;4989012;28;20505;-80
2023/01/31 14:14:36;;;;;;;14.63;4.38;;;7.30;99.90;;;;;;4991914;28;20104;-78
2023/01/31 14:17:14;;;;;;;13.15;4.45;;;7.30;99.90;;;;;;5004284;28;20045;-78
2023/01/31 14:19:42;;;;;;;12.80;3.70;;;7.30;99.90;;;;;;4987988;28;20091;-77
2023/01/31 14:22:14;;;;;;;14.80;4.28;;;7.30;99.90;;;;;;5006301;28;20034;-77
2023/01/31 14:24:46;;;;;;;16.88;4.80;;;7.30;99.90;;;;;;4988090;28;20038;-78
2023/01/31 14:27:23;;;;;;;22.23;4.25;;;7.40;99.90;;;;;;4989920;28;20068;-82
2023/01/31 14:30:04;;;;;;;16.50;3.83;;;7.40;99.90;;;;;;4990174;28;20227;-86
2023/01/31 14:32:33;;;;;;;20.25;5.20;;;7.40;99.90;;;;;;4998621;28;20056;-80
2023/01/31 14:35:16;;;;;;;16.48;3.70;;;7.40;99.90;;;;;;5007653;28;20080;-85
2023/01/31 14:38:01;;;;;;;14.57;3.83;;;7.50;99.90;;;;;;4992814;28;20474;-85
2023/01/31 14:40:36;;;;;;;14.98;4.28;;;7.50;99.90;;;;;;5011099;28;20830;-87
2023/01/31 14:43:10;;;;;;;25.92;5.15;;;7.50;99.90;;;;;;5013125;28;20026;-82